createdAt,value
2023-01-20T00:00:51.217Z,24.20
2023-01-20T00:01:51.157Z,24.10
2023-01-20T00:02:51.197Z,24.30
2023-01-20T00:03:51.160Z,24.70
2023-01-20T00:04:51.108Z,24.70
2023-01-20T00:05:51.100Z,24.60
2023-01-20T00:06:51.097Z,25.90
2023-01-20T00:07:51.093Z,24.90
2023-01-20T00:08:51.059Z,23.00
2023-01-20T00:09:51.054Z,24.20
2023-01-20T00:10:51.040Z,24.90
2023-01-20T00:11:51.050Z,24.60
2023-01-20T00:12:51.020Z,24.80
2023-01-20T00:13:51.010Z,25.10
2023-01-20T00:14:51.015Z,24.20
2023-01-20T00:15:51.000Z,21.90
2023-01-20T00:16:50.994Z,23.40
2023-01-20T00:17:50.976Z,22.80
2023-01-20T00:18:50.963Z,23.50
2023-01-20T00:19:50.946Z,23.70
2023-01-20T00:20:50.935Z,23.20
2023-01-20T00:21:50.936Z,25.00
2023-01-20T00:22:50.912Z,24.30
2023-01-20T00:23:50.918Z,24.20
2023-01-20T00:24:50.894Z,24.50
2023-01-20T00:25:50.881Z,24.90
2023-01-20T00:26:50.874Z,23.90
2023-01-20T00:27:50.875Z,24.00
2023-01-20T00:28:50.843Z,23.90
2023-01-20T00:29:50.833Z,23.80
2023-01-20T00:30:50.873Z,24.50
2023-01-20T00:31:50.824Z,24.50
2023-01-20T00:32:50.805Z,24.20
2023-01-20T00:33:50.789Z,23.80
2023-01-20T00:34:50.786Z,25.10
2023-01-20T00:35:50.776Z,25.40
2023-01-20T00:36:50.771Z,26.20
2023-01-20T00:37:50.749Z,26.00
2023-01-20T00:38:50.738Z,25.10
2023-01-20T00:39:50.726Z,25.40
2023-01-20T00:40:50.723Z,25.10
2023-01-20T00:41:50.717Z,25.90
2023-01-20T00:42:50.698Z,26.40
2023-01-20T00:43:50.688Z,25.60
2023-01-20T00:44:50.674Z,26.10
2023-01-20T00:45:50.664Z,26.40
2023-01-20T00:46:50.738Z,25.10
2023-01-20T00:47:50.642Z,24.90
2023-01-20T00:48:50.639Z,26.80
2023-01-20T00:49:50.620Z,25.00
2023-01-20T00:50:50.607Z,25.10
2023-01-20T00:51:50.656Z,24.60
2023-01-20T00:52:50.590Z,25.20
2023-01-20T00:53:50.578Z,26.10
2023-01-20T00:54:50.577Z,25.10
2023-01-20T00:55:50.551Z,24.40
2023-01-20T00:56:50.545Z,24.80
2023-01-20T00:57:50.538Z,24.80
2023-01-20T00:58:50.526Z,24.40
2023-01-20T00:59:50.509Z,25.10
2023-01-20T01:00:50.573Z,26.90
2023-01-20T01:01:50.616Z,24.80
2023-01-20T01:02:50.487Z,24.40
2023-01-20T01:03:50.464Z,26.00
2023-01-20T01:04:50.457Z,24.50
2023-01-20T01:05:50.442Z,25.10
2023-01-20T01:06:50.433Z,25.10
2023-01-20T01:07:50.434Z,25.10
2023-01-20T01:08:50.413Z,24.80
2023-01-20T01:09:50.400Z,24.90
2023-01-20T01:10:50.392Z,25.00
2023-01-20T01:11:50.375Z,24.00
2023-01-20T01:12:50.378Z,26.50
2023-01-20T01:13:50.355Z,25.20
2023-01-20T01:14:50.348Z,23.70
2023-01-20T01:15:50.397Z,25.90
2023-01-20T01:16:50.328Z,24.20
2023-01-20T01:17:50.321Z,24.30
2023-01-20T01:18:50.311Z,24.90
2023-01-20T01:19:50.291Z,24.10
2023-01-20T01:20:50.288Z,23.70
2023-01-20T01:21:50.275Z,24.80
2023-01-20T01:22:50.277Z,24.20
2023-01-20T01:23:50.244Z,24.20
2023-01-20T01:24:50.240Z,24.90
2023-01-20T01:25:50.223Z,24.60
2023-01-20T01:26:50.216Z,24.40
2023-01-20T01:27:50.220Z,24.50
2023-01-20T01:28:50.206Z,24.40
2023-01-20T01:29:50.181Z,26.10
2023-01-20T01:30:50.216Z,24.60
2023-01-20T01:31:50.162Z,24.90
2023-01-20T01:32:50.165Z,25.40
2023-01-20T01:33:50.143Z,26.50
2023-01-20T01:34:50.133Z,25.40
2023-01-20T01:35:50.116Z,25.10
2023-01-20T01:36:50.116Z,24.70
2023-01-20T01:37:50.104Z,25.70
2023-01-20T01:38:58.456Z,25.60
2023-01-20T01:39:50.079Z,24.30
2023-01-20T01:40:50.075Z,24.20
2023-01-20T01:41:50.052Z,24.90
2023-01-20T01:42:50.076Z,25.60
2023-01-20T01:43:50.029Z,25.20
2023-01-20T01:44:50.031Z,26.40
2023-01-20T01:45:50.085Z,26.70
2023-01-20T01:46:50.009Z,25.40
2023-01-20T01:47:50.002Z,25.20
2023-01-20T01:48:49.980Z,26.10
2023-01-20T01:49:49.965Z,26.00
2023-01-20T01:50:49.956Z,25.70
2023-01-20T01:51:49.942Z,25.50
2023-01-20T01:52:49.948Z,25.20
2023-01-20T01:53:49.919Z,25.20
2023-01-20T01:54:49.915Z,25.30
2023-01-20T01:55:49.900Z,25.80
2023-01-20T01:56:49.898Z,25.80
2023-01-20T01:57:49.886Z,25.50
2023-01-20T01:58:49.875Z,26.70
2023-01-20T01:59:49.854Z,26.10
2023-01-20T02:00:49.897Z,25.50
2023-01-20T02:01:49.951Z,25.70
2023-01-20T02:02:49.837Z,25.50
2023-01-20T02:03:49.814Z,26.70
2023-01-20T02:04:49.805Z,25.10
2023-01-20T02:05:49.792Z,26.30
2023-01-20T02:06:49.781Z,25.90
2023-01-20T02:07:49.780Z,26.80
2023-01-20T02:08:49.773Z,25.80
2023-01-20T02:09:49.747Z,25.60
2023-01-20T02:10:49.750Z,26.00
2023-01-20T02:11:49.732Z,26.60
2023-01-20T02:12:49.747Z,26.90
2023-01-20T02:13:49.705Z,26.30
2023-01-20T02:14:49.699Z,26.00
2023-01-20T02:15:49.684Z,26.70
2023-01-20T02:16:49.678Z,26.20
2023-01-20T02:17:49.670Z,26.50
2023-01-20T02:18:49.656Z,25.20
2023-01-20T02:19:49.639Z,25.30
2023-01-20T02:20:49.631Z,26.30
2023-01-20T02:21:49.628Z,26.50
2023-01-20T02:22:49.617Z,26.70
2023-01-20T02:23:49.596Z,25.90
2023-01-20T02:24:49.588Z,25.80
2023-01-20T02:25:49.574Z,26.80
2023-01-20T02:26:49.566Z,26.00
2023-01-20T02:27:49.571Z,27.60
2023-01-20T02:28:49.554Z,27.00
2023-01-20T02:29:49.540Z,26.20
2023-01-20T02:30:49.569Z,26.40
2023-01-20T02:31:49.568Z,26.60
2023-01-20T02:32:49.501Z,27.10
2023-01-20T02:33:49.491Z,28.70
2023-01-20T02:34:49.473Z,27.40
2023-01-20T02:35:49.463Z,27.80
2023-01-20T02:36:49.454Z,27.90
2023-01-20T02:37:49.437Z,27.00
2023-01-20T02:38:49.445Z,28.00
2023-01-20T02:39:49.422Z,28.10
2023-01-20T02:40:49.421Z,28.50
2023-01-20T02:41:49.402Z,27.00
2023-01-20T02:42:49.415Z,27.60
2023-01-20T02:43:49.386Z,27.30
2023-01-20T02:48:14.191Z,27.30
2023-01-20T02:49:15.168Z,27.40
2023-01-20T02:50:15.165Z,27.20
2023-01-20T02:51:15.137Z,26.60
2023-01-20T02:52:15.140Z,27.00
2023-01-20T02:53:15.129Z,28.90
2023-01-20T02:54:15.126Z,27.10
2023-01-20T02:55:15.313Z,27.40
2023-01-20T02:56:15.097Z,27.10
2023-01-20T02:57:15.075Z,28.20
2023-01-20T02:58:15.083Z,26.90
2023-01-20T02:59:15.054Z,28.00
2023-01-20T03:00:15.048Z,28.30
2023-01-20T03:01:15.142Z,28.30
2023-01-20T03:02:15.028Z,26.60
2023-01-20T03:03:15.027Z,26.40
2023-01-20T03:04:15.016Z,26.90
2023-01-20T03:05:15.241Z,26.40
2023-01-20T03:06:14.987Z,26.90
2023-01-20T03:07:14.969Z,25.60
2023-01-20T03:08:14.974Z,25.40
2023-01-20T03:09:14.951Z,25.40
2023-01-20T03:10:14.940Z,25.80
2023-01-20T03:11:14.924Z,26.00
2023-01-20T03:12:14.925Z,26.50
2023-01-20T03:13:14.928Z,25.30
2023-01-20T03:14:14.898Z,25.80
2023-01-20T03:15:15.220Z,26.40
2023-01-20T03:16:14.947Z,25.50
2023-01-20T03:17:14.859Z,26.00
2023-01-20T03:18:14.855Z,24.90
2023-01-20T03:19:14.857Z,25.80
2023-01-20T03:20:14.850Z,25.80
2023-01-20T03:21:14.846Z,26.20
2023-01-20T03:22:14.812Z,24.30
2023-01-20T03:23:14.794Z,26.10
2023-01-20T03:24:14.804Z,25.80
2023-01-20T03:25:15.104Z,25.30
2023-01-20T03:26:14.769Z,23.80
2023-01-20T03:27:14.757Z,24.80
2023-01-20T03:28:14.744Z,22.90
2023-01-20T03:29:14.753Z,23.50
2023-01-20T03:30:14.730Z,22.70
2023-01-20T03:31:14.847Z,22.80
2023-01-20T03:32:14.702Z,22.10
2023-01-20T03:33:14.684Z,22.60
2023-01-20T03:34:14.700Z,21.50
2023-01-20T03:35:14.809Z,20.60
2023-01-20T03:36:14.660Z,20.40
2023-01-20T03:37:14.639Z,19.60
2023-01-20T03:38:14.636Z,20.40
2023-01-20T03:39:14.637Z,18.80
2023-01-20T03:40:14.620Z,19.80
2023-01-20T03:41:14.601Z,20.50
2023-01-20T03:42:14.597Z,21.20
2023-01-20T03:43:14.578Z,21.00
2023-01-20T03:44:14.581Z,19.90
2023-01-20T03:45:14.754Z,21.50
2023-01-20T03:46:14.624Z,20.50
2023-01-20T03:47:14.536Z,21.10
2023-01-20T03:48:14.531Z,21.00
2023-01-20T03:49:14.523Z,20.60
2023-01-20T03:50:14.510Z,20.50
2023-01-20T03:51:14.490Z,20.20
2023-01-20T03:52:14.481Z,21.30
2023-01-20T03:53:14.470Z,20.70
2023-01-20T03:54:14.481Z,21.20
2023-01-20T03:55:14.669Z,20.10
2023-01-20T03:56:14.438Z,20.60
2023-01-20T03:57:14.427Z,22.00
2023-01-20T03:58:14.418Z,20.60
2023-01-20T03:59:14.438Z,19.20
2023-01-20T04:00:14.396Z,20.60
2023-01-20T04:01:17.970Z,21.60
2023-01-20T04:02:14.445Z,20.40
2023-01-20T04:03:14.372Z,20.90
2023-01-20T04:04:14.372Z,20.10
2023-01-20T04:05:14.635Z,20.70
2023-01-20T04:06:14.336Z,20.70
2023-01-20T04:07:14.314Z,20.10
2023-01-20T04:08:14.310Z,20.60
2023-01-20T04:09:14.305Z,21.40
2023-01-20T04:10:14.290Z,20.10
2023-01-20T04:11:14.273Z,21.40
2023-01-20T04:12:14.268Z,21.10
2023-01-20T04:13:14.258Z,21.00
2023-01-20T04:14:14.255Z,20.00
2023-01-20T04:15:14.560Z,22.00
2023-01-20T04:16:14.223Z,21.40
2023-01-20T04:17:14.211Z,21.90
2023-01-20T04:18:14.208Z,21.30
2023-01-20T04:19:14.198Z,21.10
2023-01-20T04:20:14.179Z,21.20
2023-01-20T04:21:14.163Z,21.00
2023-01-20T04:22:14.158Z,21.00
2023-01-20T04:23:14.154Z,20.60
2023-01-20T04:24:14.153Z,21.90
2023-01-20T04:25:14.411Z,21.70
2023-01-20T04:26:14.215Z,20.50
2023-01-20T04:27:14.103Z,21.00
2023-01-20T04:28:14.091Z,21.10
2023-01-20T04:29:14.095Z,20.20
2023-01-20T04:30:14.071Z,21.30
2023-01-20T04:31:28.945Z,20.90
2023-01-20T04:32:14.063Z,21.70
2023-01-20T04:33:14.036Z,21.10
2023-01-20T04:34:14.040Z,21.60
2023-01-20T04:35:14.367Z,21.40
2023-01-20T04:36:14.013Z,22.60
2023-01-20T04:37:13.991Z,21.70
2023-01-20T04:38:13.999Z,22.00
2023-01-20T04:39:13.986Z,21.70
2023-01-20T04:40:13.996Z,21.50
2023-01-20T04:41:13.964Z,22.60
2023-01-20T04:42:13.965Z,21.50
2023-01-20T04:43:13.926Z,21.10
2023-01-20T04:44:13.918Z,21.60
2023-01-20T04:45:14.091Z,22.20
2023-01-20T04:46:13.943Z,21.00
2023-01-20T04:47:13.945Z,22.20
2023-01-20T04:48:13.880Z,21.30
2023-01-20T04:49:13.865Z,20.70
2023-01-20T04:50:13.906Z,20.70
2023-01-20T04:51:13.840Z,20.90
2023-01-20T04:52:13.833Z,20.30
2023-01-20T04:53:13.825Z,19.40
2023-01-20T04:54:13.812Z,20.60
2023-01-20T04:55:14.180Z,19.30
2023-01-20T04:56:13.790Z,20.10
2023-01-20T04:57:13.777Z,20.50
2023-01-20T04:58:13.769Z,19.50
2023-01-20T04:59:13.768Z,21.20
2023-01-20T05:00:13.756Z,21.60
2023-01-20T05:01:13.833Z,21.10
2023-01-20T05:02:13.784Z,21.80
2023-01-20T05:03:13.731Z,21.20
2023-01-20T05:04:13.699Z,20.30
2023-01-20T05:05:14.108Z,20.10
2023-01-20T05:06:13.680Z,20.10
2023-01-20T05:07:13.670Z,20.30
2023-01-20T05:08:13.661Z,19.20
2023-01-20T05:09:13.645Z,19.90
2023-01-20T05:10:13.652Z,20.60
2023-01-20T05:11:13.689Z,19.90
2023-01-20T05:12:13.614Z,20.10
2023-01-20T05:13:13.602Z,20.90
2023-01-20T05:14:13.597Z,20.90
2023-01-20T05:15:13.917Z,19.90
2023-01-20T05:16:13.647Z,17.80
2023-01-20T05:17:13.558Z,18.20
2023-01-20T05:18:13.555Z,17.00
2023-01-20T05:19:13.537Z,17.80
2023-01-20T05:20:13.542Z,18.00
2023-01-20T05:21:13.513Z,17.50
2023-01-20T05:22:13.507Z,18.80
2023-01-20T05:23:13.491Z,18.80
2023-01-20T05:24:13.486Z,18.10
2023-01-20T05:25:13.741Z,19.50
2023-01-20T05:26:13.463Z,18.90
2023-01-20T05:27:13.445Z,18.30
2023-01-20T05:28:13.438Z,17.70
2023-01-20T05:29:13.428Z,17.30
2023-01-20T05:30:13.434Z,18.40
2023-01-20T05:31:13.513Z,17.90
2023-01-20T05:32:13.398Z,18.90
2023-01-20T05:33:13.505Z,17.90
2023-01-20T05:34:13.381Z,18.80
2023-01-20T05:35:13.799Z,17.40
2023-01-20T05:36:13.356Z,18.30
2023-01-20T05:37:13.340Z,18.90
2023-01-20T05:38:13.344Z,19.10
2023-01-20T05:39:13.324Z,19.20
2023-01-20T05:40:13.322Z,18.90
2023-01-20T05:41:13.295Z,19.30
2023-01-20T05:42:13.288Z,19.60
2023-01-20T05:43:13.268Z,18.40
2023-01-20T05:44:13.288Z,19.60
2023-01-20T05:45:13.611Z,19.10
2023-01-20T05:46:13.268Z,19.70
2023-01-20T05:47:13.228Z,19.50
2023-01-20T05:48:13.222Z,20.60
2023-01-20T05:49:13.217Z,19.70
2023-01-20T05:50:13.211Z,21.10
2023-01-20T05:51:13.189Z,19.50
2023-01-20T05:52:13.176Z,19.50
2023-01-20T05:53:13.172Z,20.60
2023-01-20T05:54:13.156Z,20.20
2023-01-20T05:55:13.665Z,20.40
2023-01-20T05:56:13.132Z,20.20
2023-01-20T05:57:13.125Z,21.70
2023-01-20T05:58:13.118Z,22.90
2023-01-20T05:59:13.105Z,21.50
2023-01-20T06:00:13.099Z,22.30
2023-01-20T06:01:13.116Z,22.90
2023-01-20T06:02:13.073Z,22.10
2023-01-20T06:03:13.057Z,23.00
2023-01-20T06:04:13.056Z,22.10
2023-01-20T06:05:13.496Z,23.60
2023-01-20T06:06:13.032Z,23.00
2023-01-20T06:07:13.012Z,22.20
2023-01-20T06:08:13.014Z,23.90
2023-01-20T06:09:13.064Z,22.80
2023-01-20T06:10:13.001Z,22.30
2023-01-20T06:11:13.000Z,22.00
2023-01-20T06:12:12.978Z,21.60
2023-01-20T06:13:13.002Z,21.20
2023-01-20T06:14:12.943Z,20.60
2023-01-20T06:15:13.461Z,21.80
2023-01-20T06:16:13.009Z,21.50
2023-01-20T06:17:12.907Z,21.10
2023-01-20T06:18:12.899Z,20.80
2023-01-20T06:19:12.898Z,19.50
2023-01-20T06:20:12.989Z,19.40
2023-01-20T06:21:12.877Z,19.20
2023-01-20T06:22:12.866Z,19.30
2023-01-20T06:23:12.848Z,20.90
2023-01-20T06:24:12.833Z,19.20
2023-01-20T06:25:13.392Z,18.60
2023-01-20T06:26:12.867Z,19.70
2023-01-20T06:27:13.778Z,19.20
2023-01-20T06:28:12.791Z,19.20
2023-01-20T06:29:12.790Z,19.20
2023-01-20T06:30:12.782Z,18.40
2023-01-20T06:31:12.881Z,18.80
2023-01-20T06:32:12.789Z,18.90
2023-01-20T06:33:12.766Z,18.40
2023-01-20T06:34:12.757Z,18.10
2023-01-20T06:35:13.102Z,17.70
2023-01-20T06:36:12.718Z,17.90
2023-01-20T06:37:12.717Z,18.40
2023-01-20T06:38:12.689Z,18.20
2023-01-20T06:39:12.677Z,17.80
2023-01-20T06:40:12.700Z,18.00
2023-01-20T06:41:12.647Z,18.40
2023-01-20T06:42:12.646Z,18.50
2023-01-20T06:43:12.624Z,17.50
2023-01-20T06:44:12.661Z,17.80
2023-01-20T06:45:12.928Z,18.00
2023-01-20T06:46:12.649Z,17.70
2023-01-20T06:47:12.610Z,18.40
2023-01-20T06:48:13.007Z,18.70
2023-01-20T06:49:12.593Z,19.50
2023-01-20T06:50:12.579Z,19.00
2023-01-20T06:51:12.548Z,18.90
2023-01-20T06:52:12.530Z,19.10
2023-01-20T06:53:12.516Z,19.20
2023-01-20T06:54:12.520Z,19.30
2023-01-20T06:55:13.041Z,20.20
2023-01-20T06:56:12.499Z,20.30
2023-01-20T06:57:12.471Z,20.50
2023-01-20T06:58:12.471Z,20.60
2023-01-20T06:59:12.450Z,20.70
2023-01-20T07:00:12.443Z,20.70
2023-01-20T07:01:12.584Z,21.50
2023-01-20T07:02:12.523Z,21.20
2023-01-20T07:03:14.083Z,21.60
2023-01-20T07:04:12.399Z,21.10
2023-01-20T07:05:12.804Z,22.10
2023-01-20T07:06:12.389Z,22.00
2023-01-20T07:07:12.520Z,21.60
2023-01-20T07:08:12.355Z,22.10
2023-01-20T07:09:12.355Z,23.00
2023-01-20T07:10:12.337Z,23.10
2023-01-20T07:11:12.348Z,22.80
2023-01-20T07:12:12.311Z,22.50
2023-01-20T07:13:12.297Z,23.00
2023-01-20T07:14:12.298Z,22.80
2023-01-20T07:15:12.439Z,23.30
2023-01-20T07:16:15.387Z,22.50
2023-01-20T07:17:12.263Z,23.70
2023-01-20T07:18:12.256Z,23.10
2023-01-20T07:19:12.247Z,23.20
2023-01-20T07:20:12.236Z,24.40
2023-01-20T07:21:12.224Z,23.70
2023-01-20T07:22:12.207Z,24.30
2023-01-20T07:23:12.188Z,24.00
2023-01-20T07:24:12.183Z,24.40
2023-01-20T07:25:12.418Z,23.30
2023-01-20T07:26:12.176Z,23.60
2023-01-20T07:27:12.150Z,22.30
2023-01-20T07:28:12.160Z,23.50
2023-01-20T07:29:12.127Z,23.60
2023-01-20T07:30:12.124Z,22.40
2023-01-20T07:31:12.195Z,23.40
2023-01-20T07:32:12.094Z,23.40
2023-01-20T07:33:12.081Z,23.80
2023-01-20T07:34:12.075Z,23.80
2023-01-20T07:35:12.115Z,23.00
2023-01-20T07:36:12.065Z,22.50
2023-01-20T07:37:12.040Z,23.40
2023-01-20T07:38:12.029Z,22.90
2023-01-20T07:39:12.020Z,23.10
2023-01-20T07:40:12.010Z,24.90
2023-01-20T07:41:12.006Z,23.20
2023-01-20T07:42:11.988Z,22.50
2023-01-20T07:43:11.971Z,23.60
2023-01-20T07:44:12.006Z,24.70
2023-01-20T07:45:12.037Z,23.40
2023-01-20T07:46:11.961Z,23.80
2023-01-20T07:47:11.929Z,23.30
2023-01-20T07:48:11.946Z,23.90
2023-01-20T07:49:12.416Z,23.70
2023-01-20T07:50:11.907Z,24.50
2023-01-20T07:51:11.934Z,24.00
2023-01-20T07:52:11.890Z,23.90
2023-01-20T07:53:11.863Z,24.40
2023-01-20T07:54:11.866Z,25.00
2023-01-20T07:55:11.842Z,24.20
2023-01-20T07:56:11.848Z,23.50
2023-01-20T07:57:11.823Z,24.20
2023-01-20T07:58:11.846Z,26.70
2023-01-20T07:59:11.797Z,26.80
2023-01-20T08:00:11.791Z,27.60
2023-01-20T08:01:11.913Z,26.30
2023-01-20T08:02:11.817Z,25.70
2023-01-20T08:03:11.756Z,26.60
2023-01-20T08:04:11.748Z,25.90
2023-01-20T08:05:11.738Z,28.50
2023-01-20T08:06:11.746Z,26.70
2023-01-20T08:07:11.713Z,27.50
2023-01-20T08:08:11.719Z,28.30
2023-01-20T08:09:11.693Z,28.90
2023-01-20T08:10:11.685Z,27.70
2023-01-20T08:11:11.739Z,28.20
2023-01-20T08:12:11.664Z,31.10
2023-01-20T08:13:11.647Z,27.90
2023-01-20T08:14:11.639Z,29.70
2023-01-20T08:15:11.633Z,28.50
2023-01-20T08:16:11.670Z,29.70
2023-01-20T08:17:11.602Z,29.60
2023-01-20T08:18:11.596Z,30.30
2023-01-20T08:19:11.582Z,31.70
2023-01-20T08:20:11.596Z,33.90
2023-01-20T08:21:11.573Z,33.00
2023-01-20T08:22:11.555Z,33.30
2023-01-20T08:23:11.568Z,32.10
2023-01-20T08:24:11.547Z,30.60
2023-01-20T08:25:11.588Z,30.40
2023-01-20T08:26:11.523Z,29.80
2023-01-20T08:27:11.492Z,43.50
2023-01-20T08:28:11.487Z,47.80
2023-01-20T08:29:11.492Z,38.30
2023-01-20T08:30:11.468Z,38.60
2023-01-20T08:31:11.641Z,46.00
2023-01-20T08:32:11.444Z,41.50
2023-01-20T08:33:11.431Z,39.30
2023-01-20T08:34:11.421Z,31.90
2023-01-20T08:35:11.414Z,27.70
2023-01-20T08:36:11.411Z,27.00
2023-01-20T08:37:11.391Z,26.70
2023-01-20T08:38:11.374Z,27.20
2023-01-20T08:39:11.368Z,25.40
2023-01-20T08:40:11.353Z,26.00
2023-01-20T08:41:11.367Z,24.20
2023-01-20T08:42:11.335Z,23.60
2023-01-20T08:43:11.316Z,26.80
2023-01-20T08:44:11.320Z,25.30
2023-01-20T08:45:11.303Z,23.90
2023-01-20T08:46:11.317Z,22.50
2023-01-20T08:47:11.275Z,23.00
2023-01-20T08:48:11.261Z,21.10
2023-01-20T08:49:11.264Z,20.50
2023-01-20T08:50:11.246Z,21.40
2023-01-20T08:51:11.246Z,21.80
2023-01-20T08:52:12.286Z,20.90
2023-01-20T08:53:11.215Z,20.40
2023-01-20T08:54:11.197Z,20.50
2023-01-20T08:55:11.214Z,19.60
2023-01-20T08:56:11.193Z,19.40
2023-01-20T08:57:11.167Z,18.60
2023-01-20T08:58:11.153Z,18.10
2023-01-20T08:59:11.155Z,19.10
2023-01-20T09:00:11.146Z,18.00
2023-01-20T09:01:11.167Z,19.30
2023-01-20T09:02:11.189Z,18.10
2023-01-20T09:03:11.108Z,17.80
2023-01-20T09:04:11.092Z,17.40
2023-01-20T09:05:11.094Z,17.00
2023-01-20T09:06:11.088Z,17.50
2023-01-20T09:07:11.063Z,16.90
2023-01-20T09:08:11.045Z,17.00
2023-01-20T09:09:11.047Z,18.00
2023-01-20T09:10:11.026Z,19.10
2023-01-20T09:11:11.074Z,18.50
2023-01-20T09:12:11.003Z,17.70
2023-01-20T09:13:11.006Z,17.00
2023-01-20T09:14:10.988Z,16.90
2023-01-20T09:15:10.990Z,17.40
2023-01-20T09:16:11.029Z,16.00
2023-01-20T09:17:10.953Z,16.40
2023-01-20T09:18:10.940Z,17.00
2023-01-20T09:19:10.930Z,16.50
2023-01-20T09:20:10.911Z,16.40
2023-01-20T09:21:10.932Z,16.80
2023-01-20T09:22:10.956Z,17.60
2023-01-20T09:23:10.884Z,17.20
2023-01-20T09:24:10.876Z,16.80
2023-01-20T09:25:10.861Z,17.70
2023-01-20T09:26:10.859Z,17.90
2023-01-20T09:27:10.852Z,17.40
2023-01-20T09:28:10.824Z,17.70
2023-01-20T09:29:10.821Z,17.40
2023-01-20T09:30:10.805Z,16.20
2023-01-20T09:31:10.885Z,17.30
2023-01-20T09:32:10.795Z,17.10
2023-01-20T09:33:10.777Z,17.10
2023-01-20T09:34:10.762Z,17.50
2023-01-20T09:35:10.820Z,17.00
2023-01-20T09:36:10.737Z,16.80
2023-01-20T09:37:10.741Z,17.10
2023-01-20T09:38:10.719Z,17.20
2023-01-20T09:39:10.710Z,16.60
2023-01-20T09:40:10.693Z,17.00
2023-01-20T09:41:10.691Z,17.90
2023-01-20T09:42:10.689Z,16.40
2023-01-20T09:43:10.668Z,16.40
2023-01-20T09:44:10.654Z,16.20
2023-01-20T09:45:10.646Z,16.20
2023-01-20T09:46:10.667Z,16.50
2023-01-20T09:47:10.634Z,16.90
2023-01-20T09:48:10.604Z,15.50
2023-01-20T09:49:10.598Z,16.40
2023-01-20T09:50:10.596Z,16.10
2023-01-20T09:51:10.577Z,16.20
2023-01-20T09:52:10.573Z,16.70
2023-01-20T09:53:10.559Z,16.00
2023-01-20T09:54:10.539Z,15.70
2023-01-20T09:55:10.536Z,16.50
2023-01-20T09:56:10.530Z,16.40
2023-01-20T09:57:10.522Z,16.10
2023-01-20T09:58:10.497Z,16.10
2023-01-20T09:59:10.500Z,17.30
2023-01-20T10:00:10.483Z,16.60
2023-01-20T10:01:10.529Z,16.10
2023-01-20T10:02:10.464Z,17.10
2023-01-20T10:03:10.447Z,15.70
2023-01-20T10:04:10.437Z,15.60
2023-01-20T10:05:10.451Z,16.30
2023-01-20T10:06:10.410Z,16.40
2023-01-20T10:07:10.413Z,16.20
2023-01-20T10:08:10.390Z,16.30
2023-01-20T10:09:10.390Z,16.30
2023-01-20T10:10:10.367Z,17.00
2023-01-20T10:11:10.422Z,16.90
2023-01-20T10:12:10.350Z,16.60
2023-01-20T10:13:10.348Z,16.90
2023-01-20T10:14:10.325Z,16.50
2023-01-20T10:15:10.321Z,16.10
2023-01-20T10:16:10.367Z,16.50
2023-01-20T10:17:10.300Z,16.70
2023-01-20T10:18:10.312Z,16.60
2023-01-20T10:19:10.273Z,15.90
2023-01-20T10:20:10.263Z,15.50
2023-01-20T10:21:10.243Z,16.20
2023-01-20T10:22:10.266Z,16.20
2023-01-20T10:23:10.224Z,16.10
2023-01-20T10:24:10.217Z,14.90
2023-01-20T10:25:10.207Z,15.50
2023-01-20T10:26:10.198Z,15.70
2023-01-20T10:27:10.191Z,15.30
2023-01-20T10:28:10.186Z,15.10
2023-01-20T10:29:10.157Z,15.40
2023-01-20T10:30:10.153Z,15.50
2023-01-20T10:31:10.275Z,14.10
2023-01-20T10:32:10.151Z,15.20
2023-01-20T10:33:10.113Z,14.50
2023-01-20T10:34:10.107Z,14.40
2023-01-20T10:35:10.090Z,14.80
2023-01-20T10:36:10.084Z,14.00
2023-01-20T10:37:10.118Z,15.30
2023-01-20T10:38:10.073Z,15.30
2023-01-20T10:39:10.048Z,14.40
2023-01-20T10:40:10.041Z,14.80
2023-01-20T10:41:10.033Z,14.90
2023-01-20T10:42:10.043Z,16.40
2023-01-20T10:43:10.006Z,15.20
2023-01-20T10:44:10.000Z,14.10
2023-01-20T10:45:09.983Z,15.20
2023-01-20T10:46:12.384Z,14.70
2023-01-20T10:47:11.172Z,15.00
2023-01-20T10:48:09.974Z,14.50
2023-01-20T10:49:09.942Z,13.80
2023-01-20T10:50:09.933Z,13.80
2023-01-20T10:51:09.921Z,13.60
2023-01-20T10:52:10.014Z,13.70
2023-01-20T10:53:11.798Z,14.30
2023-01-20T10:54:09.900Z,14.10
2023-01-20T10:55:09.872Z,12.60
2023-01-20T10:56:09.875Z,12.10
2023-01-20T10:57:09.856Z,12.50
2023-01-20T10:58:09.857Z,11.70
2023-01-20T10:59:09.830Z,10.70
2023-01-20T11:00:09.829Z,10.20
2023-01-20T11:01:09.809Z,11.30
2023-01-20T11:02:12.366Z,10.30
2023-01-20T11:03:09.838Z,11.20
2023-01-20T11:04:09.781Z,10.80
2023-01-20T11:05:09.871Z,11.90
2023-01-20T11:06:09.765Z,10.30
2023-01-20T11:07:09.753Z,11.40
2023-01-20T11:08:09.764Z,12.70
2023-01-20T11:09:09.728Z,12.40
2023-01-20T11:10:09.719Z,12.40
2023-01-20T11:11:09.703Z,11.80
2023-01-20T11:12:09.698Z,11.50
2023-01-20T11:13:09.692Z,12.60
2023-01-20T11:14:09.672Z,11.80
2023-01-20T11:15:09.654Z,12.30
2023-01-20T11:16:09.766Z,11.40
2023-01-20T11:17:09.636Z,12.60
2023-01-20T11:18:09.668Z,11.80
2023-01-20T11:19:09.616Z,12.80
2023-01-20T11:20:09.608Z,13.30
2023-01-20T11:21:09.593Z,12.10
2023-01-20T11:22:09.596Z,12.90
2023-01-20T11:23:09.588Z,12.30
2023-01-20T11:24:09.589Z,12.60
2023-01-20T11:25:09.548Z,13.20
2023-01-20T11:26:09.542Z,13.10
2023-01-20T11:27:09.530Z,12.90
2023-01-20T11:28:09.542Z,13.50
2023-01-20T11:29:09.511Z,13.60
2023-01-20T11:30:09.498Z,13.40
2023-01-20T11:31:09.554Z,12.70
2023-01-20T11:32:09.478Z,13.40
2023-01-20T11:33:09.541Z,13.00
2023-01-20T11:34:09.462Z,13.10
2023-01-20T11:35:09.441Z,14.80
2023-01-20T11:36:09.435Z,14.10
2023-01-20T11:37:09.428Z,13.70
2023-01-20T11:38:09.425Z,15.10
2023-01-20T11:39:09.396Z,14.60
2023-01-20T11:40:09.394Z,14.90
2023-01-20T11:41:09.379Z,16.80
2023-01-20T11:42:09.372Z,17.40
2023-01-20T11:43:09.363Z,17.80
2023-01-20T11:44:09.366Z,17.00
2023-01-20T11:45:21.239Z,14.20
2023-01-20T11:46:09.331Z,14.40
2023-01-20T11:47:09.314Z,13.60
2023-01-20T11:48:09.312Z,13.50
2023-01-20T11:49:09.295Z,13.80
2023-01-20T11:50:09.293Z,13.90
2023-01-20T11:51:09.299Z,14.60
2023-01-20T11:52:09.256Z,14.30
2023-01-20T11:53:09.298Z,14.10
2023-01-20T11:54:09.233Z,14.80
2023-01-20T11:55:09.260Z,14.10
2023-01-20T11:56:09.240Z,14.20
2023-01-20T11:57:09.204Z,14.70
2023-01-20T11:58:09.207Z,13.70
2023-01-20T11:59:09.192Z,13.50
2023-01-20T12:00:09.177Z,14.70
2023-01-20T12:01:09.165Z,14.50
2023-01-20T12:02:09.250Z,14.60
2023-01-20T12:03:09.153Z,15.00
2023-01-20T12:04:09.231Z,14.70
2023-01-20T12:05:09.124Z,14.20
2023-01-20T12:06:09.106Z,13.90
2023-01-20T12:07:09.124Z,13.60
2023-01-20T12:08:09.093Z,13.90
2023-01-20T12:09:09.113Z,14.10
2023-01-20T12:10:09.094Z,14.00
2023-01-20T12:11:09.055Z,13.40
2023-01-20T12:12:09.058Z,12.80
2023-01-20T12:13:09.051Z,13.30
2023-01-20T12:14:09.033Z,13.10
2023-01-20T12:15:09.025Z,12.90
2023-01-20T12:16:09.041Z,13.60
2023-01-20T12:17:09.003Z,12.80
2023-01-20T12:18:09.830Z,13.30
2023-01-20T12:19:08.971Z,13.20
2023-01-20T12:20:08.958Z,13.00
2023-01-20T12:21:08.963Z,13.00
2023-01-20T12:22:08.946Z,13.40
2023-01-20T12:23:08.932Z,13.10
2023-01-20T12:24:08.911Z,14.40
2023-01-20T12:25:08.903Z,14.50
2023-01-20T12:26:08.885Z,14.00
2023-01-20T12:27:08.881Z,15.10
2023-01-20T12:28:08.876Z,13.60
2023-01-20T12:29:08.859Z,14.10
2023-01-20T12:30:08.845Z,13.60
2023-01-20T12:31:08.906Z,14.20
2023-01-20T12:32:08.882Z,14.30
2023-01-20T12:33:08.839Z,14.60
2023-01-20T12:34:08.803Z,14.20
2023-01-20T12:35:08.796Z,14.60
2023-01-20T12:36:08.814Z,15.00
2023-01-20T12:37:08.774Z,14.70
2023-01-20T12:38:08.766Z,14.40
2023-01-20T12:39:08.761Z,14.70
2023-01-20T12:40:08.746Z,15.00
2023-01-20T12:41:08.739Z,15.00
2023-01-20T12:42:08.722Z,15.40
2023-01-20T12:43:08.711Z,15.60
2023-01-20T12:44:08.714Z,14.60
2023-01-20T12:45:08.683Z,14.20
2023-01-20T12:46:08.736Z,15.20
2023-01-20T12:47:08.683Z,14.50
2023-01-20T12:48:08.653Z,13.90
2023-01-20T12:49:08.652Z,15.40
2023-01-20T12:50:08.629Z,15.80
2023-01-20T12:51:08.620Z,14.80
2023-01-20T12:52:08.631Z,16.70
2023-01-20T12:53:08.598Z,15.50
2023-01-20T12:54:08.602Z,16.20
2023-01-20T12:55:08.575Z,15.90
2023-01-20T12:56:08.631Z,15.20